Time;durP1;ratioP1;P1;durP2;ratioP2;P2;SDS_P1;SDS_P2;PMS_P1;PMS_P2;Temp;Humidity;BMP_temperature;BMP_pressure;BME280_temperature;BME280_humidity;BME280_pressure;Samples;Min_cycle;Max_cycle;Signal;HPM_P1;HPM_P2
2021/08/19 00:01:23;;;;;;;7.53;6.70;;;15.60;99.90;;;;;;5024051;28;20220;-44
2021/08/19 00:03:50;;;;;;;7.67;6.97;;;15.60;99.90;;;;;;5022682;28;20208;-49
2021/08/19 00:06:17;;;;;;;7.13;6.47;;;15.60;99.90;;;;;;5016821;28;20677;-45
2021/08/19 00:08:44;;;;;;;8.83;6.93;;;15.60;99.90;;;;;;5013916;28;20397;-44
2021/08/19 00:11:11;;;;;;;7.37;6.63;;;15.60;99.90;;;;;;5025724;28;20227;-45
2021/08/19 00:13:39;;;;;;;9.70;6.73;;;15.60;99.90;;;;;;5023470;28;20227;-46
2021/08/19 00:16:07;;;;;;;7.97;6.63;;;15.60;99.90;;;;;;5025659;28;20563;-44
2021/08/19 00:18:35;;;;;;;8.33;7.40;;;15.60;99.90;;;;;;5013817;28;20195;-44
2021/08/19 00:21:03;;;;;;;7.97;6.93;;;15.50;99.90;;;;;;5016570;28;20776;-45
2021/08/19 00:23:30;;;;;;;8.07;6.83;;;15.60;99.90;;;;;;5004821;28;20200;-44
2021/08/19 00:25:56;;;;;;;9.87;7.60;;;15.60;99.90;;;;;;5024914;28;20199;-48
2021/08/19 00:28:23;;;;;;;8.23;7.00;;;15.60;99.90;;;;;;5022377;28;20192;-44
2021/08/19 00:30:49;;;;;;;9.57;6.80;;;15.60;99.90;;;;;;5023481;28;20226;-45
2021/08/19 00:33:17;;;;;;;13.07;6.60;;;15.50;99.90;;;;;;5023177;28;20223;-44
2021/08/19 00:35:44;;;;;;;7.43;6.70;;;15.50;99.90;;;;;;5018274;28;20200;-44
2021/08/19 00:38:10;;;;;;;7.57;6.87;;;15.50;99.90;;;;;;5008290;28;20204;-45
2021/08/19 00:40:37;;;;;;;9.53;7.50;;;15.40;99.90;;;;;;5020391;28;20216;-45
2021/08/19 00:43:06;;;;;;;8.33;6.63;;;15.40;99.90;;;;;;5024388;28;20188;-46
2021/08/19 00:45:33;;;;;;;12.23;6.60;;;15.40;99.90;;;;;;5020998;28;20188;-44
2021/08/19 00:47:59;;;;;;;8.67;6.53;;;15.40;99.90;;;;;;5024652;28;20193;-45
2021/08/19 00:50:28;;;;;;;7.83;6.90;;;15.40;99.90;;;;;;5014347;28;20585;-44
2021/08/19 00:52:56;;;;;;;8.33;7.20;;;15.40;99.90;;;;;;5008170;28;20208;-43
2021/08/19 00:55:22;;;;;;;7.33;6.47;;;15.30;99.90;;;;;;5021577;28;20207;-46
2021/08/19 00:57:49;;;;;;;9.07;6.07;;;15.30;99.90;;;;;;5023682;28;20202;-45
2021/08/19 01:00:18;;;;;;;9.43;6.00;;;15.30;99.90;;;;;;5022346;28;20236;-46
2021/08/19 01:02:46;;;;;;;9.30;6.43;;;15.40;99.90;;;;;;5022557;28;20180;-44
2021/08/19 01:05:14;;;;;;;8.03;6.50;;;15.40;99.90;;;;;;5008918;28;20252;-46
2021/08/19 01:07:43;;;;;;;9.23;6.93;;;15.40;99.90;;;;;;5021500;28;20294;-43
2021/08/19 01:10:11;;;;;;;8.83;6.87;;;15.40;99.90;;;;;;5006672;28;20228;-46
2021/08/19 01:12:38;;;;;;;9.63;6.87;;;15.40;99.90;;;;;;5020314;28;20345;-44
2021/08/19 01:15:05;;;;;;;7.80;6.97;;;15.40;99.90;;;;;;5024412;28;20196;-43
2021/08/19 01:17:32;;;;;;;8.13;6.60;;;15.40;99.90;;;;;;5019789;28;20187;-43
2021/08/19 01:19:59;;;;;;;12.33;7.03;;;15.40;99.90;;;;;;5023826;28;20212;-46
2021/08/19 01:22:26;;;;;;;6.70;6.10;;;15.30;99.90;;;;;;5014157;28;20670;-47
2021/08/19 01:24:54;;;;;;;11.20;6.47;;;15.40;99.90;;;;;;5008521;28;20215;-45
2021/08/19 01:27:23;;;;;;;7.53;6.83;;;15.40;99.90;;;;;;5022726;28;20207;-43
2021/08/19 01:29:51;;;;;;;6.90;6.20;;;15.40;99.90;;;;;;5023198;28;20227;-43
2021/08/19 01:32:18;;;;;;;11.10;7.33;;;15.30;99.90;;;;;;5023519;28;20211;-44
2021/08/19 01:34:44;;;;;;;8.90;7.20;;;15.30;99.90;;;;;;5023470;28;20172;-44
2021/08/19 01:37:12;;;;;;;11.77;7.90;;;15.30;99.90;;;;;;5016594;28;20204;-49
2021/08/19 01:39:39;;;;;;;16.23;7.73;;;15.30;99.90;;;;;;5003903;28;20219;-45
2021/08/19 01:42:06;;;;;;;7.77;6.97;;;15.30;99.90;;;;;;5023704;28;20673;-45
2021/08/19 01:44:34;;;;;;;9.53;7.70;;;15.30;99.90;;;;;;5032584;28;20193;-42
2021/08/19 01:47:02;;;;;;;15.37;7.43;;;15.30;99.90;;;;;;5044583;28;20676;-46
2021/08/19 01:49:30;;;;;;;11.13;6.90;;;15.20;99.90;;;;;;5028744;28;20223;-44
2021/08/19 01:51:57;;;;;;;10.53;7.17;;;15.20;99.90;;;;;;5016871;28;20207;-46
2021/08/19 01:54:26;;;;;;;9.50;7.63;;;15.20;99.90;;;;;;4999275;28;20568;-48
2021/08/19 01:56:52;;;;;;;9.80;7.27;;;15.20;99.90;;;;;;5022857;28;20200;-47
2021/08/19 01:59:19;;;;;;;9.70;7.13;;;15.10;99.90;;;;;;5021283;28;20196;-46
2021/08/19 02:01:47;;;;;;;11.47;7.63;;;15.10;99.90;;;;;;5021674;28;20825;-43
2021/08/19 02:04:13;;;;;;;8.80;7.00;;;15.10;99.90;;;;;;5022780;28;20196;-47
2021/08/19 02:06:40;;;;;;;11.23;6.93;;;15.10;99.90;;;;;;5020666;28;20838;-45
2021/08/19 02:09:07;;;;;;;10.57;7.20;;;15.10;99.90;;;;;;5016753;28;20204;-44
2021/08/19 02:11:33;;;;;;;8.87;7.97;;;15.00;99.90;;;;;;5002770;28;20200;-44
2021/08/19 02:14:00;;;;;;;14.50;8.07;;;15.00;99.90;;;;;;5023311;28;20700;-43
2021/08/19 02:16:27;;;;;;;9.73;7.97;;;14.90;99.90;;;;;;5021342;28;20192;-43
2021/08/19 02:18:55;;;;;;;8.93;7.50;;;14.90;99.90;;;;;;5024737;28;20215;-43
2021/08/19 02:21:21;;;;;;;12.40;8.43;;;14.90;99.90;;;;;;5021617;28;20668;-45
2021/08/19 02:23:48;;;;;;;12.67;8.30;;;14.90;99.90;;;;;;5015549;28;21004;-44
2021/08/19 02:26:14;;;;;;;10.30;8.37;;;14.90;99.90;;;;;;5005573;28;20215;-45
2021/08/19 02:28:41;;;;;;;9.03;8.13;;;14.90;99.90;;;;;;5020346;28;20184;-49
2021/08/19 02:31:08;;;;;;;8.43;7.50;;;14.80;99.90;;;;;;5022873;28;20220;-49
2021/08/19 02:33:34;;;;;;;11.23;7.70;;;14.80;99.90;;;;;;5022488;28;20975;-46
2021/08/19 02:36:03;;;;;;;8.73;7.47;;;14.80;99.90;;;;;;5025070;28;20200;-43
2021/08/19 02:38:29;;;;;;;11.03;8.53;;;14.80;99.90;;;;;;5013077;28;20199;-48
2021/08/19 02:40:56;;;;;;;9.17;7.07;;;14.70;99.90;;;;;;5006180;28;20228;-45
2021/08/19 02:43:23;;;;;;;7.80;7.10;;;14.70;99.90;;;;;;5020730;28;20677;-42
2021/08/19 02:45:49;;;;;;;14.10;7.83;;;14.70;99.90;;;;;;5024462;28;20192;-44
2021/08/19 02:48:16;;;;;;;8.63;7.33;;;14.70;99.90;;;;;;5022122;28;20196;-43
2021/08/19 02:50:42;;;;;;;10.47;7.70;;;14.70;99.90;;;;;;5020381;28;20211;-45
2021/08/19 02:53:10;;;;;;;11.83;7.97;;;14.70;99.90;;;;;;5022479;28;20729;-47
2021/08/19 02:55:37;;;;;;;10.87;7.57;;;14.60;99.90;;;;;;4997310;28;20211;-45
2021/08/19 02:58:04;;;;;;;8.83;8.03;;;14.60;99.90;;;;;;5013738;28;20212;-44
2021/08/19 03:00:30;;;;;;;8.27;7.40;;;14.60;99.90;;;;;;5018590;28;20212;-42
2021/08/19 03:02:57;;;;;;;10.53;7.47;;;14.60;99.90;;;;;;5022788;28;20196;-46
2021/08/19 03:05:24;;;;;;;8.27;7.40;;;14.60;99.90;;;;;;5017649;28;20681;-43
2021/08/19 03:07:50;;;;;;;9.43;6.93;;;14.60;99.90;;;;;;5023325;28;20211;-44
2021/08/19 03:10:18;;;;;;;8.10;7.30;;;14.60;99.90;;;;;;5017953;28;20705;-44
2021/08/19 03:12:45;;;;;;;9.00;6.43;;;14.60;99.90;;;;;;5007121;28;20215;-42
2021/08/19 03:15:12;;;;;;;8.77;5.80;;;14.60;99.90;;;;;;5025467;28;20207;-51
2021/08/19 03:17:38;;;;;;;5.13;4.73;;;14.60;99.90;;;;;;5023526;28;20810;-43
2021/08/19 03:20:07;;;;;;;5.70;5.10;;;14.50;99.90;;;;;;5025934;28;20219;-43
2021/08/19 03:22:34;;;;;;;5.50;4.93;;;14.50;99.90;;;;;;5022330;28;20195;-43
2021/08/19 03:25:01;;;;;;;5.90;4.77;;;14.50;99.90;;;;;;5021043;28;20204;-46
2021/08/19 03:27:31;;;;;;;5.03;4.43;;;14.50;99.90;;;;;;5009388;28;20192;-44
2021/08/19 03:29:58;;;;;;;4.57;4.17;;;14.50;99.90;;;;;;5026776;28;20234;-43
2021/08/19 03:32:25;;;;;;;5.80;4.47;;;14.50;99.90;;;;;;5024797;28;20196;-45
2021/08/19 03:34:51;;;;;;;5.30;4.80;;;14.50;99.90;;;;;;5026464;28;20211;-45
2021/08/19 03:37:18;;;;;;;4.63;4.27;;;14.50;99.90;;;;;;5024878;28;20673;-43
2021/08/19 03:39:44;;;;;;;6.40;4.77;;;14.50;99.90;;;;;;5025206;28;20200;-45
2021/08/19 03:42:11;;;;;;;5.23;4.30;;;14.50;99.90;;;;;;5016717;28;20208;-44
2021/08/19 03:44:39;;;;;;;7.47;5.00;;;14.50;99.90;;;;;;5009620;28;20240;-44
2021/08/19 03:47:06;;;;;;;4.43;3.80;;;14.50;99.90;;;;;;5026108;28;20200;-45
2021/08/19 03:49:32;;;;;;;6.90;4.17;;;14.50;99.90;;;;;;5020808;28;20212;-43
2021/08/19 03:51:59;;;;;;;12.17;4.70;;;14.50;99.90;;;;;;5025796;28;20207;-43
2021/08/19 03:54:25;;;;;;;6.37;4.73;;;14.50;99.90;;;;;;5022396;28;20230;-46
2021/08/19 03:56:52;;;;;;;4.70;4.30;;;14.50;99.90;;;;;;5019210;28;20200;-47
2021/08/19 03:59:19;;;;;;;5.80;4.10;;;14.50;99.90;;;;;;5011271;28;20273;-46
2021/08/19 04:01:48;;;;;;;4.33;3.50;;;14.50;99.90;;;;;;5017114;28;20226;-45
2021/08/19 04:04:14;;;;;;;10.17;4.30;;;14.50;99.90;;;;;;5026864;28;20319;-43
2021/08/19 04:06:41;;;;;;;5.03;4.07;;;14.50;99.90;;;;;;5017675;28;20200;-44
2021/08/19 04:09:08;;;;;;;6.90;4.33;;;14.50;99.90;;;;;;5025561;28;20658;-44
2021/08/19 04:11:34;;;;;;;5.53;4.70;;;14.50;99.90;;;;;;5014400;28;20187;-45
2021/08/19 04:14:01;;;;;;;6.23;4.47;;;14.50;99.90;;;;;;5008848;28;20227;-45
2021/08/19 04:16:27;;;;;;;5.23;3.97;;;14.50;99.90;;;;;;5020865;28;20200;-46
2021/08/19 04:18:55;;;;;;;6.80;4.40;;;14.50;99.90;;;;;;5025095;28;20208;-42
2021/08/19 04:21:22;;;;;;;4.47;3.80;;;14.50;99.90;;;;;;5016982;28;20232;-44
2021/08/19 04:23:49;;;;;;;6.33;4.50;;;14.50;99.90;;;;;;5024448;28;20188;-46
2021/08/19 04:26:15;;;;;;;7.37;3.97;;;14.50;99.90;;;;;;5024287;28;20554;-45
2021/08/19 04:28:42;;;;;;;5.30;4.23;;;14.50;99.90;;;;;;4999250;28;20216;-45
2021/08/19 04:31:08;;;;;;;4.90;4.17;;;14.50;99.90;;;;;;5024389;28;20212;-43
2021/08/19 04:33:36;;;;;;;4.87;4.17;;;14.50;99.90;;;;;;5021125;28;20212;-43
2021/08/19 04:36:04;;;;;;;4.93;4.40;;;14.50;99.90;;;;;;5025200;28;20203;-48
2021/08/19 04:38:33;;;;;;;5.23;4.17;;;14.50;99.90;;;;;;5015395;28;20208;-43
2021/08/19 04:41:00;;;;;;;7.80;4.37;;;14.50;99.90;;;;;;5020289;28;20220;-50
2021/08/19 04:43:27;;;;;;;7.10;4.67;;;14.50;99.90;;;;;;5010653;28;20677;-45
2021/08/19 04:45:54;;;;;;;6.03;4.93;;;14.60;99.90;;;;;;5006527;28;20731;-45
2021/08/19 04:48:20;;;;;;;11.00;5.20;;;14.60;99.90;;;;;;5016311;28;20196;-45
2021/08/19 04:50:47;;;;;;;5.67;4.83;;;14.60;99.90;;;;;;5024183;28;20220;-43
2021/08/19 04:53:15;;;;;;;4.63;4.03;;;14.60;99.90;;;;;;5015026;28;20211;-44
2021/08/19 04:55:42;;;;;;;6.23;4.63;;;14.60;99.90;;;;;;5015411;28;20197;-46
2021/08/19 04:58:08;;;;;;;6.33;4.60;;;14.60;99.90;;;;;;5023288;28;20207;-47
2021/08/19 05:00:35;;;;;;;4.70;4.30;;;14.70;99.90;;;;;;5000677;28;20855;-46
2021/08/19 05:03:02;;;;;;;5.60;5.03;;;14.60;99.90;;;;;;5017297;28;20203;-43
2021/08/19 05:05:28;;;;;;;7.33;5.53;;;14.70;99.90;;;;;;5024217;28;20640;-47
2021/08/19 05:07:55;;;;;;;5.70;4.80;;;14.60;99.90;;;;;;5015434;28;20215;-43
2021/08/19 05:10:23;;;;;;;6.63;4.60;;;14.60;99.90;;;;;;5024211;28;20255;-46
2021/08/19 05:12:50;;;;;;;5.43;4.67;;;14.60;99.90;;;;;;5019555;28;20869;-45
2021/08/19 05:15:16;;;;;;;5.77;4.70;;;14.70;99.90;;;;;;5008150;28;20219;-43
2021/08/19 05:17:43;;;;;;;5.03;4.53;;;14.60;99.90;;;;;;5020584;28;20196;-47
2021/08/19 05:20:10;;;;;;;5.47;4.73;;;14.60;99.90;;;;;;5024440;28;20219;-45
2021/08/19 05:22:37;;;;;;;4.70;4.30;;;14.60;99.90;;;;;;5024773;28;20193;-46
2021/08/19 05:25:05;;;;;;;6.53;4.30;;;14.60;99.90;;;;;;5019759;28;20945;-44
2021/08/19 05:27:33;;;;;;;5.97;4.07;;;14.60;99.90;;;;;;5024917;28;20196;-44
2021/08/19 05:29:59;;;;;;;4.90;3.57;;;14.50;99.90;;;;;;5023200;28;20284;-44
2021/08/19 05:32:26;;;;;;;5.13;3.60;;;14.50;99.90;;;;;;5011196;28;20223;-46
2021/08/19 05:34:53;;;;;;;6.23;3.53;;;14.50;99.90;;;;;;5023092;28;20392;-45
2021/08/19 05:37:19;;;;;;;3.03;2.70;;;14.50;99.90;;;;;;5020561;28;20204;-46
2021/08/19 05:39:46;;;;;;;3.80;3.40;;;14.50;99.90;;;;;;5004710;28;20928;-44
2021/08/19 05:42:12;;;;;;;6.17;3.50;;;14.60;99.90;;;;;;5016778;28;20203;-45
2021/08/19 05:44:40;;;;;;;5.30;3.77;;;14.60;99.90;;;;;;5010560;28;20681;-45
2021/08/19 05:47:07;;;;;;;3.80;3.47;;;14.70;99.90;;;;;;5004185;28;20219;-44
2021/08/19 05:49:35;;;;;;;4.60;3.73;;;14.70;99.90;;;;;;5018709;28;20571;-49
2021/08/19 05:52:02;;;;;;;5.70;4.23;;;14.80;99.90;;;;;;5014196;28;20277;-44
2021/08/19 05:54:29;;;;;;;4.53;3.90;;;14.80;99.90;;;;;;5022339;28;20307;-44
2021/08/19 05:56:55;;;;;;;4.27;3.87;;;14.80;99.90;;;;;;5012024;28;20215;-47
2021/08/19 05:59:22;;;;;;;6.30;4.93;;;14.80;99.90;;;;;;5020446;28;20204;-44
2021/08/19 06:01:50;;;;;;;5.60;5.10;;;14.80;99.90;;;;;;5005122;28;20827;-45
2021/08/19 06:04:17;;;;;;;6.37;4.43;;;14.80;99.90;;;;;;5023396;28;20196;-43
2021/08/19 06:06:44;;;;;;;6.67;4.80;;;14.90;99.90;;;;;;5013257;28;20207;-46
2021/08/19 06:09:11;;;;;;;7.37;5.10;;;14.90;99.90;;;;;;5018212;28;20192;-43
2021/08/19 06:11:37;;;;;;;5.37;4.90;;;14.90;99.90;;;;;;5016295;28;20196;-46
2021/08/19 06:14:04;;;;;;;6.93;5.47;;;15.00;99.90;;;;;;5011666;28;20223;-44
2021/08/19 06:16:31;;;;;;;7.77;6.13;;;15.00;99.90;;;;;;5020172;28;20203;-44
2021/08/19 06:19:00;;;;;;;9.60;6.00;;;15.00;99.90;;;;;;5002656;28;20208;-48
2021/08/19 06:21:26;;;;;;;8.03;6.37;;;15.00;99.90;;;;;;5016965;28;20216;-47
2021/08/19 06:23:53;;;;;;;7.43;6.50;;;15.10;99.90;;;;;;5008544;28;20204;-48
2021/08/19 06:26:20;;;;;;;8.87;6.93;;;15.00;99.90;;;;;;5007749;28;20207;-48
2021/08/19 06:28:46;;;;;;;7.90;6.90;;;15.10;99.90;;;;;;5017867;28;20615;-44
2021/08/19 06:31:13;;;;;;;8.30;7.50;;;15.10;99.90;;;;;;5014599;28;20223;-46
2021/08/19 06:33:39;;;;;;;12.30;8.13;;;15.10;99.90;;;;;;5007179;28;20203;-47
2021/08/19 06:36:08;;;;;;;13.13;8.47;;;15.20;99.90;;;;;;5018296;28;20212;-44
2021/08/19 06:38:34;;;;;;;11.03;7.67;;;15.20;99.90;;;;;;5022605;28;20283;-47
2021/08/19 06:41:01;;;;;;;10.33;8.30;;;15.20;99.90;;;;;;5014076;28;20231;-44
2021/08/19 06:43:27;;;;;;;11.13;7.20;;;15.30;99.90;;;;;;5026992;28;20200;-47
2021/08/19 06:45:54;;;;;;;11.27;7.80;;;15.30;99.90;;;;;;5030454;28;20192;-47
2021/08/19 06:48:20;;;;;;;10.70;7.73;;;15.30;99.90;;;;;;5009883;28;20204;-46
2021/08/19 06:50:47;;;;;;;10.53;7.23;;;15.40;99.90;;;;;;5031949;28;20219;-46
2021/08/19 06:53:15;;;;;;;11.83;7.17;;;15.40;99.90;;;;;;5023932;28;20191;-44
2021/08/19 06:55:42;;;;;;;8.70;6.40;;;15.40;99.90;;;;;;5019602;28;20248;-46
2021/08/19 06:58:08;;;;;;;10.30;7.13;;;15.40;99.90;;;;;;5010131;28;20204;-47
2021/08/19 07:00:35;;;;;;;9.20;7.43;;;15.40;99.90;;;;;;5026711;28;20592;-44
2021/08/19 07:03:01;;;;;;;7.17;6.37;;;15.40;99.90;;;;;;5005340;28;20215;-46
2021/08/19 07:05:28;;;;;;;11.07;7.80;;;15.40;99.90;;;;;;5008967;28;20215;-43
2021/08/19 07:07:59;;;;;;;8.33;7.50;;;15.40;99.90;;;;;;5026425;28;20203;-43
2021/08/19 07:10:27;;;;;;;8.37;7.47;;;15.40;99.90;;;;;;5019251;28;20750;-44
2021/08/19 07:12:54;;;;;;;12.60;8.37;;;15.40;99.90;;;;;;5020000;28;20286;-43
2021/08/19 07:15:20;;;;;;;13.70;7.50;;;15.40;99.90;;;;;;5025014;28;20220;-47
2021/08/19 07:17:47;;;;;;;13.37;7.80;;;15.40;99.90;;;;;;5023736;28;20215;-43
2021/08/19 07:20:14;;;;;;;10.13;7.57;;;15.40;99.90;;;;;;5008020;28;20839;-47
2021/08/19 07:22:44;;;;;;;12.80;7.13;;;15.50;99.90;;;;;;5026156;28;20564;-45
2021/08/19 07:25:11;;;;;;;10.57;6.83;;;15.40;99.90;;;;;;5015381;28;20327;-45
2021/08/19 07:27:40;;;;;;;9.57;7.20;;;15.40;99.90;;;;;;5023465;28;20204;-45
2021/08/19 07:30:08;;;;;;;11.80;7.27;;;15.40;99.90;;;;;;5013997;28;20222;-43
2021/08/19 07:32:35;;;;;;;9.60;7.50;;;15.40;99.90;;;;;;5019634;28;20211;-43
2021/08/19 07:35:01;;;;;;;12.80;7.63;;;15.40;99.90;;;;;;5001668;28;20270;-49
2021/08/19 07:37:28;;;;;;;7.17;6.47;;;15.50;99.90;;;;;;5019787;28;20207;-42
2021/08/19 07:39:55;;;;;;;8.00;6.57;;;15.40;99.90;;;;;;5020862;28;20737;-47
2021/08/19 07:42:21;;;;;;;9.80;6.37;;;15.50;99.90;;;;;;5014221;28;20204;-45
2021/08/19 07:44:49;;;;;;;9.73;6.50;;;15.50;99.90;;;;;;5021609;28;20566;-47
2021/08/19 07:47:16;;;;;;;11.93;6.93;;;15.50;99.90;;;;;;5020203;28;20210;-43
2021/08/19 07:49:42;;;;;;;9.33;6.50;;;15.60;99.90;;;;;;5022276;28;20219;-46
2021/08/19 07:52:09;;;;;;;11.33;6.70;;;15.70;99.90;;;;;;5008619;28;20200;-48
2021/08/19 07:54:35;;;;;;;9.60;6.67;;;15.80;99.90;;;;;;5028497;28;20608;-43
2021/08/19 07:57:03;;;;;;;11.00;5.40;;;15.90;99.90;;;;;;5018381;28;20195;-43
2021/08/19 07:59:30;;;;;;;9.93;5.37;;;15.90;99.90;;;;;;5020385;28;20223;-45
2021/08/19 08:01:59;;;;;;;5.90;4.90;;;15.90;99.90;;;;;;5013733;28;20208;-42
2021/08/19 08:04:25;;;;;;;6.53;5.57;;;16.00;99.90;;;;;;5015679;28;20193;-43
2021/08/19 08:06:52;;;;;;;8.73;5.20;;;16.10;99.90;;;;;;5012768;28;20223;-48
2021/08/19 08:09:19;;;;;;;7.53;4.87;;;16.20;99.90;;;;;;5000799;28;20797;-43
2021/08/19 08:11:45;;;;;;;6.87;4.43;;;16.30;99.90;;;;;;5024691;28;20199;-49
2021/08/19 08:14:12;;;;;;;6.87;5.00;;;16.40;99.90;;;;;;5017745;28;20208;-43
2021/08/19 08:16:39;;;;;;;8.13;5.30;;;16.40;99.90;;;;;;5019482;28;20207;-45
2021/08/19 08:19:07;;;;;;;9.10;5.67;;;16.40;99.90;;;;;;5015281;28;20220;-43
2021/08/19 08:21:36;;;;;;;6.57;5.43;;;16.50;99.90;;;;;;5020853;28;20784;-45
2021/08/19 08:24:04;;;;;;;6.90;4.90;;;16.50;99.90;;;;;;4995803;28;20216;-43
2021/08/19 08:26:30;;;;;;;9.10;4.87;;;16.50;99.90;;;;;;5015846;28;20207;-45
2021/08/19 08:28:58;;;;;;;9.20;5.30;;;16.50;99.90;;;;;;5015493;28;20204;-43
2021/08/19 08:31:24;;;;;;;6.40;5.17;;;16.70;99.90;;;;;;5025185;28;20243;-47
2021/08/19 08:33:51;;;;;;;10.23;5.67;;;16.70;99.90;;;;;;5006194;28;20205;-44
2021/08/19 08:36:19;;;;;;;10.67;4.90;;;16.80;99.90;;;;;;5017008;28;20236;-42
2021/08/19 08:38:46;;;;;;;8.03;4.73;;;16.90;99.90;;;;;;5000734;28;20211;-50
2021/08/19 08:41:13;;;;;;;6.43;5.30;;;16.90;99.90;;;;;;5012227;28;20318;-44
2021/08/19 08:43:40;;;;;;;8.50;4.53;;;16.90;99.90;;;;;;5015943;28;20872;-41
2021/08/19 08:46:10;;;;;;;7.57;4.47;;;16.90;99.90;;;;;;5011089;28;20212;-47
2021/08/19 08:48:37;;;;;;;7.50;4.63;;;16.90;99.90;;;;;;5014718;28;20262;-43
2021/08/19 08:51:04;;;;;;;7.23;4.57;;;17.00;99.90;;;;;;5013119;28;20215;-48
2021/08/19 08:53:32;;;;;;;6.13;5.00;;;17.00;99.90;;;;;;5013956;28;20196;-44
2021/08/19 08:55:59;;;;;;;5.83;4.70;;;17.10;99.90;;;;;;5003281;28;20710;-43
2021/08/19 08:58:25;;;;;;;5.47;4.50;;;17.20;99.90;;;;;;5019640;28;20196;-42
2021/08/19 09:00:52;;;;;;;6.43;4.20;;;17.30;99.90;;;;;;5020678;28;20229;-45
2021/08/19 09:03:20;;;;;;;6.53;4.37;;;17.30;99.90;;;;;;5009132;28;20204;-45
2021/08/19 09:05:48;;;;;;;6.87;4.23;;;17.30;99.90;;;;;;5019012;28;20200;-45
2021/08/19 09:08:17;;;;;;;4.63;3.67;;;17.40;99.90;;;;;;5021728;28;20254;-43
2021/08/19 09:10:45;;;;;;;5.40;3.97;;;;;;;;;;5006644;28;20219;-46
2021/08/19 09:13:15;;;;;;;5.00;3.57;;;17.50;99.90;;;;;;5019786;28;20294;-43
2021/08/19 09:15:42;;;;;;;9.13;4.10;;;17.50;99.90;;;;;;5009298;28;20653;-46
2021/08/19 09:18:10;;;;;;;6.67;4.00;;;17.60;99.90;;;;;;5006247;28;20207;-50
2021/08/19 09:20:39;;;;;;;4.60;4.17;;;17.60;99.90;;;;;;5002669;28;20232;-43
2021/08/19 09:23:16;;;;;;;6.23;3.80;;;17.70;99.90;;;;;;5140116;27;20551;-47
2021/08/19 09:25:45;;;;;;;5.70;4.00;;;17.80;99.90;;;;;;5124739;27;20219;-42
2021/08/19 09:28:17;;;;;;;5.87;3.37;;;17.90;99.90;;;;;;5140574;27;20192;-43
2021/08/19 09:30:48;;;;;;;4.97;3.60;;;17.90;99.90;;;;;;5133915;27;20220;-49
2021/08/19 09:33:17;;;;;;;5.37;3.40;;;17.90;99.90;;;;;;5134394;27;20216;-42
2021/08/19 09:35:45;;;;;;;6.73;4.17;;;17.90;99.90;;;;;;5133118;27;20228;-48
2021/08/19 09:38:15;;;;;;;4.37;3.57;;;17.90;99.90;;;;;;5136842;27;20224;-43
2021/08/19 09:40:42;;;;;;;6.70;4.20;;;17.90;99.90;;;;;;5126578;27;21694;-48
2021/08/19 09:43:08;;;;;;;5.93;3.70;;;18.00;99.90;;;;;;5143433;27;20728;-42
2021/08/19 09:45:45;;;;;;;8.73;4.87;;;18.10;99.90;;;;;;5127222;27;20200;-45
2021/08/19 09:48:13;;;;;;;6.23;3.90;;;18.20;99.90;;;;;;5132030;27;20232;-42
2021/08/19 09:50:41;;;;;;;8.20;4.40;;;18.20;99.90;;;;;;5116771;27;20224;-44
2021/08/19 09:53:29;;;;;;;9.53;4.17;;;18.10;99.90;;;;;;5120989;27;20208;-47
2021/08/19 09:55:55;;;;;;;6.27;3.70;;;18.20;99.90;;;;;;5126472;27;20212;-42
2021/08/19 09:58:30;;;;;;;5.93;4.23;;;18.30;99.90;;;;;;5119656;27;20681;-42
2021/08/19 10:00:57;;;;;;;8.13;4.10;;;18.40;99.90;;;;;;5129021;27;22788;-44
2021/08/19 10:03:26;;;;;;;8.20;4.03;;;18.40;99.90;;;;;;5123975;27;20200;-42
2021/08/19 10:05:53;;;;;;;7.70;4.43;;;18.40;99.90;;;;;;5129202;27;20194;-43
2021/08/19 10:08:21;;;;;;;7.63;4.50;;;18.40;99.90;;;;;;5114504;27;20278;-42
2021/08/19 10:10:53;;;;;;;10.33;4.60;;;18.50;99.90;;;;;;5126782;27;20216;-43
2021/08/19 10:13:20;;;;;;;5.47;4.10;;;18.40;99.90;;;;;;5111303;27;20205;-44
2021/08/19 10:15:49;;;;;;;8.50;4.60;;;18.40;99.90;;;;;;5133127;27;20199;-43
2021/08/19 10:18:21;;;;;;;6.50;4.00;;;18.40;99.90;;;;;;5123050;27;20301;-41
2021/08/19 10:20:55;;;;;;;6.40;4.40;;;18.30;99.90;;;;;;5125953;27;20216;-48
2021/08/19 10:23:25;;;;;;;6.60;3.87;;;18.30;99.90;;;;;;5130621;27;22567;-47
2021/08/19 10:26:02;;;;;;;6.37;3.57;;;18.20;99.90;;;;;;5135633;27;20273;-45
2021/08/19 10:28:45;;;;;;;5.50;4.73;;;18.20;99.90;;;;;;5117424;27;20215;-45
2021/08/19 10:31:11;;;;;;;7.00;4.20;;;18.20;99.90;;;;;;5117798;27;20936;-45
2021/08/19 10:33:45;;;;;;;4.47;3.93;;;18.30;99.90;;;;;;5122280;27;20676;-46
2021/08/19 10:36:52;;;;;;;7.90;4.27;;;18.40;99.90;;;;;;5107086;27;20246;-44
2021/08/19 10:39:44;;;;;;;8.87;4.70;;;18.40;99.90;;;;;;5042194;28;20221;-43
2021/08/19 10:42:29;;;;;;;8.73;5.20;;;18.50;99.90;;;;;;5040234;28;20318;-47
2021/08/19 10:44:56;;;;;;;8.60;4.83;;;18.40;99.90;;;;;;5100277;27;20220;-44
2021/08/19 10:47:37;;;;;;;6.17;4.53;;;18.50;99.90;;;;;;5114609;27;20212;-45
2021/08/19 10:50:27;;;;;;;7.33;4.67;;;18.50;99.90;;;;;;5117516;27;20208;-46
2021/08/19 10:52:54;;;;;;;8.50;5.17;;;18.40;99.90;;;;;;5116051;27;20204;-45
2021/08/19 10:55:22;;;;;;;7.07;4.40;;;18.40;99.90;;;;;;5095790;27;20204;-46
2021/08/19 10:57:54;;;;;;;8.93;4.93;;;18.40;99.90;;;;;;5107546;27;20652;-44
2021/08/19 11:00:41;;;;;;;9.23;5.10;;;18.40;99.90;;;;;;5107798;27;20217;-44
2021/08/19 11:03:28;;;;;;;7.67;4.43;;;18.50;99.90;;;;;;5102854;27;20581;-44
2021/08/19 11:05:56;;;;;;;11.53;5.13;;;18.50;99.90;;;;;;5115982;27;20196;-42
2021/08/19 11:08:44;;;;;;;9.60;5.57;;;18.50;99.90;;;;;;5104893;27;20311;-41
2021/08/19 11:11:13;;;;;;;11.20;5.37;;;18.60;99.90;;;;;;5102715;27;20224;-41
2021/08/19 11:13:41;;;;;;;9.27;4.93;;;18.70;99.90;;;;;;5108521;27;20201;-45
2021/08/19 11:16:10;;;;;;;8.17;5.00;;;18.80;99.90;;;;;;5111005;27;20211;-42
2021/08/19 11:18:37;;;;;;;9.30;4.73;;;18.90;99.90;;;;;;5108504;27;20604;-43
2021/08/19 11:21:06;;;;;;;9.47;4.63;;;18.90;99.90;;;;;;5098191;27;20686;-46
2021/08/19 11:23:34;;;;;;;6.90;4.53;;;19.00;99.90;;;;;;5105618;27;20270;-42
2021/08/19 11:26:04;;;;;;;7.67;4.70;;;18.90;99.90;;;;;;5110733;27;20596;-42
2021/08/19 11:28:41;;;;;;;6.03;4.27;;;18.90;99.90;;;;;;5115290;27;20193;-42
2021/08/19 11:31:14;;;;;;;7.03;4.93;;;18.80;99.90;;;;;;5099506;27;20246;-43
2021/08/19 11:33:41;;;;;;;7.83;4.93;;;18.80;99.90;;;;;;5114644;27;20269;-44
2021/08/19 11:36:09;;;;;;;8.53;4.70;;;18.80;99.90;;;;;;5112119;27;20208;-46
2021/08/19 11:38:36;;;;;;;10.50;5.20;;;19.00;99.90;;;;;;5124724;27;20192;-44
2021/08/19 11:41:13;;;;;;;5.77;4.53;;;19.10;99.90;;;;;;5109194;27;20228;-46
2021/08/19 11:43:43;;;;;;;6.70;4.70;;;19.20;99.90;;;;;;5103827;27;20212;-44
2021/08/19 11:46:12;;;;;;;9.90;5.20;;;19.20;99.90;;;;;;5088549;27;20212;-46
2021/08/19 11:48:48;;;;;;;8.07;5.13;;;19.10;99.90;;;;;;5115776;27;20192;-44
2021/08/19 11:51:21;;;;;;;6.73;4.53;;;19.20;99.90;;;;;;5095385;27;20905;-45
2021/08/19 11:53:59;;;;;;;7.33;4.70;;;19.10;99.90;;;;;;5118680;27;20204;-45
2021/08/19 11:56:31;;;;;;;6.63;5.00;;;19.10;99.90;;;;;;5106708;27;22772;-44
2021/08/19 11:59:05;;;;;;;6.50;4.40;;;19.10;99.90;;;;;;5106192;27;20537;-43
2021/08/19 12:01:32;;;;;;;11.30;5.00;;;19.10;99.90;;;;;;5101726;27;20225;-46
2021/08/19 12:04:00;;;;;;;7.33;5.00;;;19.10;99.90;;;;;;5118982;27;20220;-44
2021/08/19 12:06:28;;;;;;;8.00;4.63;;;19.10;99.90;;;;;;5105316;27;20353;-46
2021/08/19 12:08:56;;;;;;;9.73;5.60;;;19.20;99.90;;;;;;5124525;27;20199;-43
2021/08/19 12:11:24;;;;;;;6.47;4.60;;;19.20;99.90;;;;;;5098782;27;20225;-43
2021/08/19 12:13:52;;;;;;;8.73;5.33;;;19.20;99.90;;;;;;5107702;27;20197;-42
2021/08/19 12:16:22;;;;;;;9.80;4.43;;;19.30;99.90;;;;;;5107314;27;20200;-46
2021/08/19 12:19:09;;;;;;;8.53;4.83;;;19.40;99.90;;;;;;5108179;27;20544;-47
2021/08/19 12:21:37;;;;;;;7.37;4.90;;;19.40;99.90;;;;;;5107985;27;20255;-47
2021/08/19 12:24:17;;;;;;;6.70;4.57;;;19.30;99.90;;;;;;5111490;27;20218;-48
2021/08/19 12:26:59;;;;;;;9.00;5.33;;;19.40;99.90;;;;;;5116556;27;20283;-42
2021/08/19 12:29:26;;;;;;;10.77;5.43;;;19.40;99.90;;;;;;5104496;27;20204;-45
2021/08/19 12:31:54;;;;;;;8.23;4.77;;;19.40;99.90;;;;;;5114837;27;20201;-45
2021/08/19 12:34:21;;;;;;;8.20;4.80;;;19.40;99.90;;;;;;5107860;27;20688;-48
2021/08/19 12:36:48;;;;;;;7.83;5.13;;;19.40;99.90;;;;;;5111763;27;20211;-43
2021/08/19 12:39:20;;;;;;;6.03;4.37;;;19.40;99.90;;;;;;5120776;27;20202;-43
2021/08/19 12:41:48;;;;;;;9.20;5.53;;;19.60;99.90;;;;;;5110371;27;20471;-45
2021/08/19 12:44:20;;;;;;;11.10;5.27;;;19.70;99.90;;;;;;5124840;27;20214;-42
2021/08/19 12:46:50;;;;;;;7.40;4.47;;;19.90;99.90;;;;;;5108064;27;20192;-44
2021/08/19 12:49:29;;;;;;;8.37;5.13;;;20.00;99.90;;;;;;5100917;27;20217;-46
2021/08/19 12:52:15;;;;;;;8.47;4.73;;;20.10;99.90;;;;;;5102310;27;20343;-45